logo dgac
Martes 21 de Septiembre del 2021
Buscar por aerodromo o helipuerto
Ingrese nombre de aeródromo, localidad o designador OACI:
TAF: TAF SCAR 211019Z 2112/2212 20004KT CAVOK TX17/2118Z TN15/2210Z BECMG 2116/2118 22010KT BECMG 2122/2124 BKN030 BECMG 2201/2203 20004KT
TAF del 21/09/2021 a las 10:19 UTC
Para mayor información visite www.meteochile.cl
Período de validez: desde el 21 a las 12:00 UTC hasta el 22 a las 12:00 UTC
Viento: dirección 200 grados, velocidad 4 nudos
Visibilidad: 10 km o más,
    sin nubes bajo los 5.000 pies o bajo del MSA (Mínimo de Seguridad del Aeródromo),
    sin cumulonimbus, y sin fenómenos de tiempo significativo en el aeródromo o alrededores
Temperatura máxima: 17ºC el 21 a las 18:00 UTC
Temperatura mínima: 15ºC el 22 a las 10:00 UTC
Se espera un cambio entre las 16:00 UTC del 21 y las 18:00 UTC del 21, :
Viento: dirección 220 grados, velocidad 10 nudos
Se espera un cambio entre las 22:00 UTC del 21 y las 24:00 UTC del 21, :
Nubes: Nublado a 3000 pies sobre el nivel del aeródromo
Se espera un cambio entre las 01:00 UTC del 22 y las 03:00 UTC del 22, :
Viento: dirección 200 grados, velocidad 4 nudos